sensor_id;sensor_type;location;lat;lon;timestamp;P1;durP1;ratioP1;P2;durP2;ratioP2
19965;SDS011;10144;50.874;4.762;2023-08-20T00:02:07;15.00;;;3.00;;
19965;SDS011;10144;50.874;4.762;2023-08-20T00:04:36;11.75;;;2.88;;
19965;SDS011;10144;50.874;4.762;2023-08-20T00:07:04;18.02;;;2.72;;
19965;SDS011;10144;50.874;4.762;2023-08-20T00:09:32;10.70;;;2.75;;
19965;SDS011;10144;50.874;4.762;2023-08-20T00:12:00;9.70;;;2.63;;
19965;SDS011;10144;50.874;4.762;2023-08-20T00:17:33;17.48;;;2.95;;
19965;SDS011;10144;50.874;4.762;2023-08-20T00:20:00;12.05;;;2.83;;
19965;SDS011;10144;50.874;4.762;2023-08-20T00:22:37;15.55;;;2.78;;
19965;SDS011;10144;50.874;4.762;2023-08-20T00:25:03;16.42;;;3.22;;
19965;SDS011;10144;50.874;4.762;2023-08-20T00:27:32;11.90;;;3.00;;
19965;SDS011;10144;50.874;4.762;2023-08-20T00:29:59;12.27;;;3.10;;
19965;SDS011;10144;50.874;4.762;2023-08-20T00:32:31;14.88;;;2.80;;
19965;SDS011;10144;50.874;4.762;2023-08-20T00:34:57;14.23;;;3.13;;
19965;SDS011;10144;50.874;4.762;2023-08-20T00:37:23;12.07;;;3.00;;
19965;SDS011;10144;50.874;4.762;2023-08-20T00:39:50;13.57;;;3.47;;
19965;SDS011;10144;50.874;4.762;2023-08-20T00:42:21;13.27;;;3.33;;
19965;SDS011;10144;50.874;4.762;2023-08-20T00:44:50;17.52;;;3.60;;
19965;SDS011;10144;50.874;4.762;2023-08-20T00:47:22;11.70;;;3.13;;
19965;SDS011;10144;50.874;4.762;2023-08-20T00:49:51;12.15;;;3.20;;
19965;SDS011;10144;50.874;4.762;2023-08-20T00:52:23;13.00;;;3.40;;
19965;SDS011;10144;50.874;4.762;2023-08-20T00:57:20;10.00;;;3.03;;
19965;SDS011;10144;50.874;4.762;2023-08-20T00:59:49;11.70;;;2.97;;
19965;SDS011;10144;50.874;4.762;2023-08-20T01:02:17;13.95;;;3.53;;
19965;SDS011;10144;50.874;4.762;2023-08-20T01:04:45;8.20;;;2.78;;
19965;SDS011;10144;50.874;4.762;2023-08-20T01:10:25;13.20;;;3.20;;
19965;SDS011;10144;50.874;4.762;2023-08-20T01:13:04;14.90;;;3.25;;
19965;SDS011;10144;50.874;4.762;2023-08-20T01:15:31;13.13;;;2.80;;
19965;SDS011;10144;50.874;4.762;2023-08-20T01:17:57;14.35;;;3.03;;
19965;SDS011;10144;50.874;4.762;2023-08-20T01:20:25;14.32;;;2.78;;
19965;SDS011;10144;50.874;4.762;2023-08-20T01:23:06;17.20;;;3.25;;
19965;SDS011;10144;50.874;4.762;2023-08-20T01:28:29;14.45;;;2.75;;
19965;SDS011;10144;50.874;4.762;2023-08-20T01:31:02;15.70;;;3.08;;
19965;SDS011;10144;50.874;4.762;2023-08-20T01:33:31;13.40;;;2.90;;
19965;SDS011;10144;50.874;4.762;2023-08-20T01:36:06;11.20;;;3.10;;
19965;SDS011;10144;50.874;4.762;2023-08-20T01:38:37;16.10;;;2.90;;
19965;SDS011;10144;50.874;4.762;2023-08-20T01:41:04;16.88;;;3.08;;
19965;SDS011;10144;50.874;4.762;2023-08-20T01:43:29;14.32;;;2.95;;
19965;SDS011;10144;50.874;4.762;2023-08-20T01:45:58;19.83;;;3.13;;
19965;SDS011;10144;50.874;4.762;2023-08-20T01:48:25;14.60;;;2.80;;
19965;SDS011;10144;50.874;4.762;2023-08-20T01:50:50;14.02;;;2.70;;
19965;SDS011;10144;50.874;4.762;2023-08-20T01:53:16;16.52;;;3.13;;
19965;SDS011;10144;50.874;4.762;2023-08-20T01:55:45;11.95;;;3.10;;
19965;SDS011;10144;50.874;4.762;2023-08-20T01:58:11;12.13;;;2.35;;
19965;SDS011;10144;50.874;4.762;2023-08-20T02:00:42;10.77;;;2.58;;
19965;SDS011;10144;50.874;4.762;2023-08-20T02:03:13;13.73;;;2.75;;
19965;SDS011;10144;50.874;4.762;2023-08-20T02:05:44;15.05;;;2.67;;
19965;SDS011;10144;50.874;4.762;2023-08-20T02:08:13;12.20;;;2.78;;
19965;SDS011;10144;50.874;4.762;2023-08-20T02:10:42;15.75;;;2.95;;
19965;SDS011;10144;50.874;4.762;2023-08-20T02:13:08;9.75;;;2.58;;
19965;SDS011;10144;50.874;4.762;2023-08-20T02:18:08;10.93;;;2.45;;
19965;SDS011;10144;50.874;4.762;2023-08-20T02:20:35;14.75;;;3.00;;
19965;SDS011;10144;50.874;4.762;2023-08-20T02:23:00;10.77;;;2.60;;
19965;SDS011;10144;50.874;4.762;2023-08-20T02:25:32;12.68;;;2.95;;
19965;SDS011;10144;50.874;4.762;2023-08-20T02:30:31;16.13;;;3.13;;
19965;SDS011;10144;50.874;4.762;2023-08-20T02:33:04;13.23;;;2.47;;
19965;SDS011;10144;50.874;4.762;2023-08-20T02:35:31;9.60;;;2.50;;
19965;SDS011;10144;50.874;4.762;2023-08-20T02:40:25;16.35;;;3.08;;
19965;SDS011;10144;50.874;4.762;2023-08-20T02:42:51;14.30;;;3.00;;
19965;SDS011;10144;50.874;4.762;2023-08-20T02:45:17;12.05;;;2.80;;
19965;SDS011;10144;50.874;4.762;2023-08-20T02:47:44;11.70;;;2.63;;
19965;SDS011;10144;50.874;4.762;2023-08-20T02:50:11;12.15;;;2.47;;
19965;SDS011;10144;50.874;4.762;2023-08-20T02:52:37;12.30;;;2.60;;
19965;SDS011;10144;50.874;4.762;2023-08-20T02:55:03;12.07;;;2.67;;
19965;SDS011;10144;50.874;4.762;2023-08-20T02:57:32;17.05;;;2.97;;
19965;SDS011;10144;50.874;4.762;2023-08-20T03:00:00;13.50;;;2.90;;
19965;SDS011;10144;50.874;4.762;2023-08-20T03:02:26;13.80;;;2.95;;
19965;SDS011;10144;50.874;4.762;2023-08-20T03:04:55;14.20;;;2.75;;
19965;SDS011;10144;50.874;4.762;2023-08-20T03:09:53;18.75;;;2.63;;
19965;SDS011;10144;50.874;4.762;2023-08-20T03:12:21;8.43;;;2.35;;
19965;SDS011;10144;50.874;4.762;2023-08-20T03:14:52;12.93;;;2.92;;
19965;SDS011;10144;50.874;4.762;2023-08-20T03:17:21;10.57;;;2.50;;
19965;SDS011;10144;50.874;4.762;2023-08-20T03:19:58;11.63;;;3.08;;
19965;SDS011;10144;50.874;4.762;2023-08-20T03:22:25;14.52;;;3.55;;
19965;SDS011;10144;50.874;4.762;2023-08-20T03:24:53;12.30;;;3.10;;
19965;SDS011;10144;50.874;4.762;2023-08-20T03:27:22;9.85;;;2.95;;
19965;SDS011;10144;50.874;4.762;2023-08-20T03:29:51;13.00;;;3.03;;
19965;SDS011;10144;50.874;4.762;2023-08-20T03:32:23;10.65;;;3.10;;
19965;SDS011;10144;50.874;4.762;2023-08-20T03:34:51;11.85;;;3.20;;
19965;SDS011;10144;50.874;4.762;2023-08-20T03:37:20;10.77;;;3.38;;
19965;SDS011;10144;50.874;4.762;2023-08-20T03:39:47;13.93;;;3.10;;
19965;SDS011;10144;50.874;4.762;2023-08-20T03:42:14;16.25;;;3.33;;
19965;SDS011;10144;50.874;4.762;2023-08-20T03:44:43;15.63;;;3.05;;
19965;SDS011;10144;50.874;4.762;2023-08-20T03:47:21;13.82;;;2.80;;
19965;SDS011;10144;50.874;4.762;2023-08-20T03:49:52;10.43;;;2.67;;
19965;SDS011;10144;50.874;4.762;2023-08-20T03:52:18;11.55;;;2.70;;
19965;SDS011;10144;50.874;4.762;2023-08-20T03:54:46;15.75;;;3.05;;
19965;SDS011;10144;50.874;4.762;2023-08-20T03:59:40;11.15;;;2.80;;
19965;SDS011;10144;50.874;4.762;2023-08-20T04:02:06;19.20;;;3.53;;
19965;SDS011;10144;50.874;4.762;2023-08-20T04:04:32;16.10;;;4.05;;
19965;SDS011;10144;50.874;4.762;2023-08-20T04:06:57;13.82;;;3.30;;
19965;SDS011;10144;50.874;4.762;2023-08-20T04:09:23;10.68;;;3.15;;
19965;SDS011;10144;50.874;4.762;2023-08-20T04:11:52;19.88;;;3.78;;
19965;SDS011;10144;50.874;4.762;2023-08-20T04:14:19;16.00;;;3.30;;
19965;SDS011;10144;50.874;4.762;2023-08-20T04:16:49;10.52;;;2.92;;
19965;SDS011;10144;50.874;4.762;2023-08-20T04:19:15;18.48;;;3.75;;
19965;SDS011;10144;50.874;4.762;2023-08-20T04:21:43;13.38;;;3.35;;
19965;SDS011;10144;50.874;4.762;2023-08-20T04:24:14;13.40;;;3.17;;
19965;SDS011;10144;50.874;4.762;2023-08-20T04:26:41;13.48;;;3.50;;
19965;SDS011;10144;50.874;4.762;2023-08-20T04:29:11;13.30;;;2.92;;
19965;SDS011;10144;50.874;4.762;2023-08-20T04:31:37;11.43;;;3.30;;
19965;SDS011;10144;50.874;4.762;2023-08-20T04:34:05;12.13;;;3.20;;
19965;SDS011;10144;50.874;4.762;2023-08-20T04:36:31;16.25;;;3.17;;
19965;SDS011;10144;50.874;4.762;2023-08-20T04:38:56;14.48;;;3.67;;
19965;SDS011;10144;50.874;4.762;2023-08-20T04:41:22;13.40;;;3.25;;
19965;SDS011;10144;50.874;4.762;2023-08-20T04:43:48;17.23;;;4.07;;
19965;SDS011;10144;50.874;4.762;2023-08-20T04:46:13;14.88;;;3.85;;
19965;SDS011;10144;50.874;4.762;2023-08-20T04:48:41;11.43;;;3.63;;
19965;SDS011;10144;50.874;4.762;2023-08-20T04:51:07;11.30;;;3.72;;
19965;SDS011;10144;50.874;4.762;2023-08-20T04:53:34;10.95;;;3.45;;
19965;SDS011;10144;50.874;4.762;2023-08-20T04:56:02;14.18;;;3.63;;
19965;SDS011;10144;50.874;4.762;2023-08-20T04:58:28;12.25;;;4.35;;
19965;SDS011;10144;50.874;4.762;2023-08-20T05:00:54;10.95;;;4.10;;
19965;SDS011;10144;50.874;4.762;2023-08-20T05:03:20;18.88;;;4.10;;
19965;SDS011;10144;50.874;4.762;2023-08-20T05:05:55;20.35;;;4.97;;
19965;SDS011;10144;50.874;4.762;2023-08-20T05:08:21;17.92;;;4.63;;
19965;SDS011;10144;50.874;4.762;2023-08-20T05:13:16;15.63;;;4.22;;
19965;SDS011;10144;50.874;4.762;2023-08-20T05:15:43;16.35;;;4.47;;
19965;SDS011;10144;50.874;4.762;2023-08-20T05:18:12;15.85;;;4.07;;
19965;SDS011;10144;50.874;4.762;2023-08-20T05:20:40;14.10;;;4.30;;
19965;SDS011;10144;50.874;4.762;2023-08-20T05:23:09;13.57;;;4.50;;
19965;SDS011;10144;50.874;4.762;2023-08-20T05:25:41;14.45;;;4.60;;
19965;SDS011;10144;50.874;4.762;2023-08-20T05:28:06;13.07;;;4.15;;
19965;SDS011;10144;50.874;4.762;2023-08-20T05:35:54;12.15;;;4.47;;
19965;SDS011;10144;50.874;4.762;2023-08-20T05:38:21;12.65;;;3.80;;
19965;SDS011;10144;50.874;4.762;2023-08-20T05:40:50;17.33;;;4.50;;
19965;SDS011;10144;50.874;4.762;2023-08-20T05:43:16;15.82;;;4.60;;
19965;SDS011;10144;50.874;4.762;2023-08-20T05:45:43;13.57;;;3.72;;
19965;SDS011;10144;50.874;4.762;2023-08-20T05:48:11;10.93;;;3.80;;
19965;SDS011;10144;50.874;4.762;2023-08-20T05:50:37;15.73;;;4.03;;
19965;SDS011;10144;50.874;4.762;2023-08-20T05:53:04;9.77;;;3.22;;
19965;SDS011;10144;50.874;4.762;2023-08-20T05:55:36;10.18;;;3.47;;
19965;SDS011;10144;50.874;4.762;2023-08-20T05:58:02;9.30;;;3.13;;
19965;SDS011;10144;50.874;4.762;2023-08-20T06:02:58;13.25;;;3.35;;
19965;SDS011;10144;50.874;4.762;2023-08-20T06:05:24;16.67;;;3.30;;
19965;SDS011;10144;50.874;4.762;2023-08-20T06:07:55;14.05;;;3.35;;
19965;SDS011;10144;50.874;4.762;2023-08-20T06:10:23;8.27;;;2.90;;
19965;SDS011;10144;50.874;4.762;2023-08-20T06:12:49;12.52;;;3.28;;
19965;SDS011;10144;50.874;4.762;2023-08-20T06:15:14;10.35;;;2.72;;
19965;SDS011;10144;50.874;4.762;2023-08-20T06:20:11;12.18;;;2.90;;
19965;SDS011;10144;50.874;4.762;2023-08-20T06:22:37;10.02;;;3.17;;
19965;SDS011;10144;50.874;4.762;2023-08-20T06:25:05;12.70;;;3.30;;
19965;SDS011;10144;50.874;4.762;2023-08-20T06:27:32;11.30;;;3.17;;
19965;SDS011;10144;50.874;4.762;2023-08-20T06:30:04;12.73;;;2.83;;
19965;SDS011;10144;50.874;4.762;2023-08-20T06:32:31;9.80;;;2.90;;
19965;SDS011;10144;50.874;4.762;2023-08-20T06:34:59;13.30;;;2.95;;
19965;SDS011;10144;50.874;4.762;2023-08-20T06:37:27;10.50;;;2.83;;
19965;SDS011;10144;50.874;4.762;2023-08-20T06:39:55;5.70;;;2.65;;
19965;SDS011;10144;50.874;4.762;2023-08-20T06:42:21;11.10;;;2.95;;
19965;SDS011;10144;50.874;4.762;2023-08-20T06:44:48;11.40;;;2.95;;
19965;SDS011;10144;50.874;4.762;2023-08-20T06:47:19;7.55;;;2.63;;
19965;SDS011;10144;50.874;4.762;2023-08-20T06:49:45;8.95;;;2.80;;
19965;SDS011;10144;50.874;4.762;2023-08-20T06:52:10;11.52;;;2.60;;
19965;SDS011;10144;50.874;4.762;2023-08-20T06:54:37;11.32;;;2.85;;
19965;SDS011;10144;50.874;4.762;2023-08-20T06:57:04;11.05;;;2.60;;
19965;SDS011;10144;50.874;4.762;2023-08-20T06:59:31;8.00;;;2.33;;
19965;SDS011;10144;50.874;4.762;2023-08-20T07:01:56;10.77;;;2.35;;
19965;SDS011;10144;50.874;4.762;2023-08-20T07:04:22;6.28;;;2.33;;
19965;SDS011;10144;50.874;4.762;2023-08-20T07:06:51;8.30;;;2.10;;
19965;SDS011;10144;50.874;4.762;2023-08-20T07:09:19;7.53;;;2.13;;
19965;SDS011;10144;50.874;4.762;2023-08-20T07:11:45;9.60;;;1.80;;
19965;SDS011;10144;50.874;4.762;2023-08-20T07:16:41;8.27;;;2.00;;
19965;SDS011;10144;50.874;4.762;2023-08-20T07:19:08;8.73;;;2.17;;
19965;SDS011;10144;50.874;4.762;2023-08-20T07:21:34;5.53;;;1.85;;
19965;SDS011;10144;50.874;4.762;2023-08-20T07:24:01;7.05;;;1.80;;
19965;SDS011;10144;50.874;4.762;2023-08-20T07:26:27;7.57;;;2.03;;
19965;SDS011;10144;50.874;4.762;2023-08-20T07:28:53;8.85;;;2.42;;
19965;SDS011;10144;50.874;4.762;2023-08-20T07:31:23;4.30;;;1.75;;
19965;SDS011;10144;50.874;4.762;2023-08-20T07:33:55;6.35;;;2.05;;
19965;SDS011;10144;50.874;4.762;2023-08-20T07:36:24;7.32;;;2.10;;
19965;SDS011;10144;50.874;4.762;2023-08-20T07:38:53;7.00;;;2.30;;
19965;SDS011;10144;50.874;4.762;2023-08-20T07:41:21;6.97;;;2.10;;
19965;SDS011;10144;50.874;4.762;2023-08-20T07:43:48;8.15;;;2.17;;
19965;SDS011;10144;50.874;4.762;2023-08-20T07:46:15;8.75;;;2.63;;
19965;SDS011;10144;50.874;4.762;2023-08-20T07:48:41;8.00;;;1.95;;
19965;SDS011;10144;50.874;4.762;2023-08-20T07:51:07;6.93;;;2.40;;
19965;SDS011;10144;50.874;4.762;2023-08-20T07:53:33;9.82;;;2.20;;
19965;SDS011;10144;50.874;4.762;2023-08-20T07:56:00;9.70;;;2.25;;
19965;SDS011;10144;50.874;4.762;2023-08-20T07:58:26;6.40;;;1.83;;
19965;SDS011;10144;50.874;4.762;2023-08-20T08:00:53;6.20;;;1.95;;
19965;SDS011;10144;50.874;4.762;2023-08-20T08:03:19;7.88;;;1.83;;
19965;SDS011;10144;50.874;4.762;2023-08-20T08:05:47;6.35;;;2.10;;
19965;SDS011;10144;50.874;4.762;2023-08-20T08:08:16;5.20;;;1.77;;
19965;SDS011;10144;50.874;4.762;2023-08-20T08:10:43;5.00;;;2.05;;
19965;SDS011;10144;50.874;4.762;2023-08-20T08:13:13;3.65;;;1.23;;
19965;SDS011;10144;50.874;4.762;2023-08-20T08:15:44;6.50;;;1.20;;
19965;SDS011;10144;50.874;4.762;2023-08-20T08:18:11;3.80;;;1.30;;
19965;SDS011;10144;50.874;4.762;2023-08-20T08:20:37;5.50;;;1.65;;
19965;SDS011;10144;50.874;4.762;2023-08-20T08:23:02;5.72;;;1.50;;
19965;SDS011;10144;50.874;4.762;2023-08-20T08:25:28;7.70;;;1.85;;
19965;SDS011;10144;50.874;4.762;2023-08-20T08:27:55;5.07;;;1.65;;
19965;SDS011;10144;50.874;4.762;2023-08-20T08:30:20;5.28;;;1.90;;
19965;SDS011;10144;50.874;4.762;2023-08-20T08:32:46;6.10;;;2.17;;
19965;SDS011;10144;50.874;4.762;2023-08-20T08:35:12;5.07;;;1.98;;
19965;SDS011;10144;50.874;4.762;2023-08-20T08:37:37;6.53;;;1.92;;
19965;SDS011;10144;50.874;4.762;2023-08-20T08:40:03;7.13;;;2.75;;
19965;SDS011;10144;50.874;4.762;2023-08-20T08:42:31;7.60;;;2.75;;
19965;SDS011;10144;50.874;4.762;2023-08-20T08:44:58;12.02;;;3.28;;
19965;SDS011;10144;50.874;4.762;2023-08-20T08:47:25;11.77;;;2.83;;
19965;SDS011;10144;50.874;4.762;2023-08-20T08:49:51;7.72;;;2.55;;
19965;SDS011;10144;50.874;4.762;2023-08-20T08:52:20;6.35;;;2.42;;
19965;SDS011;10144;50.874;4.762;2023-08-20T08:54:47;9.90;;;2.72;;
19965;SDS011;10144;50.874;4.762;2023-08-20T08:57:14;10.25;;;3.13;;
19965;SDS011;10144;50.874;4.762;2023-08-20T08:59:40;8.15;;;2.40;;
19965;SDS011;10144;50.874;4.762;2023-08-20T09:02:10;8.45;;;2.95;;
19965;SDS011;10144;50.874;4.762;2023-08-20T09:04:40;5.93;;;2.60;;
19965;SDS011;10144;50.874;4.762;2023-08-20T09:07:10;7.07;;;2.70;;
19965;SDS011;10144;50.874;4.762;2023-08-20T09:09:43;6.68;;;2.35;;
19965;SDS011;10144;50.874;4.762;2023-08-20T09:12:13;7.82;;;2.40;;
19965;SDS011;10144;50.874;4.762;2023-08-20T09:14:39;6.35;;;2.00;;
19965;SDS011;10144;50.874;4.762;2023-08-20T09:17:08;7.68;;;2.13;;
19965;SDS011;10144;50.874;4.762;2023-08-20T09:19:37;5.80;;;2.00;;
19965;SDS011;10144;50.874;4.762;2023-08-20T09:22:02;5.90;;;2.00;;
19965;SDS011;10144;50.874;4.762;2023-08-20T09:27:03;4.00;;;1.60;;
19965;SDS011;10144;50.874;4.762;2023-08-20T09:29:33;7.20;;;2.13;;
19965;SDS011;10144;50.874;4.762;2023-08-20T09:32:09;4.32;;;2.05;;
19965;SDS011;10144;50.874;4.762;2023-08-20T09:34:48;5.55;;;2.20;;
19965;SDS011;10144;50.874;4.762;2023-08-20T09:37:15;6.93;;;2.40;;
19965;SDS011;10144;50.874;4.762;2023-08-20T09:39:43;5.95;;;2.22;;
19965;SDS011;10144;50.874;4.762;2023-08-20T09:42:09;5.65;;;2.10;;
19965;SDS011;10144;50.874;4.762;2023-08-20T09:44:36;6.32;;;2.03;;
19965;SDS011;10144;50.874;4.762;2023-08-20T09:47:07;5.35;;;2.13;;
19965;SDS011;10144;50.874;4.762;2023-08-20T09:49:41;3.40;;;1.90;;
19965;SDS011;10144;50.874;4.762;2023-08-20T09:52:09;5.78;;;2.20;;
19965;SDS011;10144;50.874;4.762;2023-08-20T09:57:12;7.03;;;2.00;;
19965;SDS011;10144;50.874;4.762;2023-08-20T09:59:43;6.10;;;2.33;;
19965;SDS011;10144;50.874;4.762;2023-08-20T10:02:10;4.95;;;2.00;;
19965;SDS011;10144;50.874;4.762;2023-08-20T10:04:38;5.50;;;2.10;;
19965;SDS011;10144;50.874;4.762;2023-08-20T10:07:04;5.97;;;2.10;;
19965;SDS011;10144;50.874;4.762;2023-08-20T10:09:30;5.22;;;1.92;;
19965;SDS011;10144;50.874;4.762;2023-08-20T10:11:56;4.57;;;2.05;;
19965;SDS011;10144;50.874;4.762;2023-08-20T10:14:22;4.72;;;1.83;;
19965;SDS011;10144;50.874;4.762;2023-08-20T10:16:48;4.35;;;1.80;;
19965;SDS011;10144;50.874;4.762;2023-08-20T10:19:15;5.90;;;1.95;;
19965;SDS011;10144;50.874;4.762;2023-08-20T10:21:45;6.25;;;1.90;;
19965;SDS011;10144;50.874;4.762;2023-08-20T10:24:17;5.70;;;1.83;;
19965;SDS011;10144;50.874;4.762;2023-08-20T10:26:47;5.95;;;1.90;;
19965;SDS011;10144;50.874;4.762;2023-08-20T10:32:08;4.45;;;1.95;;
19965;SDS011;10144;50.874;4.762;2023-08-20T10:34:36;7.03;;;2.00;;
19965;SDS011;10144;50.874;4.762;2023-08-20T10:37:10;7.43;;;1.88;;
19965;SDS011;10144;50.874;4.762;2023-08-20T10:39:38;8.90;;;2.03;;
19965;SDS011;10144;50.874;4.762;2023-08-20T10:47:45;6.70;;;2.20;;
19965;SDS011;10144;50.874;4.762;2023-08-20T10:50:17;6.45;;;1.90;;
19965;SDS011;10144;50.874;4.762;2023-08-20T10:52:47;5.03;;;1.95;;
19965;SDS011;10144;50.874;4.762;2023-08-20T10:55:14;5.53;;;1.83;;
19965;SDS011;10144;50.874;4.762;2023-08-20T10:57:40;4.40;;;1.83;;
19965;SDS011;10144;50.874;4.762;2023-08-20T11:00:06;5.57;;;2.00;;
19965;SDS011;10144;50.874;4.762;2023-08-20T11:02:40;10.05;;;2.20;;
19965;SDS011;10144;50.874;4.762;2023-08-20T11:05:19;5.63;;;1.80;;
19965;SDS011;10144;50.874;4.762;2023-08-20T11:07:46;6.97;;;2.30;;
19965;SDS011;10144;50.874;4.762;2023-08-20T11:10:14;5.32;;;2.10;;
19965;SDS011;10144;50.874;4.762;2023-08-20T11:12:40;3.72;;;1.80;;
19965;SDS011;10144;50.874;4.762;2023-08-20T11:15:07;4.13;;;1.65;;
19965;SDS011;10144;50.874;4.762;2023-08-20T11:17:34;8.93;;;2.20;;
19965;SDS011;10144;50.874;4.762;2023-08-20T11:20:00;8.00;;;1.90;;
19965;SDS011;10144;50.874;4.762;2023-08-20T11:22:29;4.63;;;2.00;;
19965;SDS011;10144;50.874;4.762;2023-08-20T11:24:55;6.68;;;2.08;;
19965;SDS011;10144;50.874;4.762;2023-08-20T11:27:26;3.47;;;2.08;;
19965;SDS011;10144;50.874;4.762;2023-08-20T11:29:52;7.07;;;2.08;;
19965;SDS011;10144;50.874;4.762;2023-08-20T11:32:19;6.05;;;1.98;;
19965;SDS011;10144;50.874;4.762;2023-08-20T11:34:44;7.05;;;1.90;;
19965;SDS011;10144;50.874;4.762;2023-08-20T11:37:10;7.55;;;2.15;;
19965;SDS011;10144;50.874;4.762;2023-08-20T11:39:36;3.85;;;1.80;;
19965;SDS011;10144;50.874;4.762;2023-08-20T11:42:08;3.60;;;1.80;;
19965;SDS011;10144;50.874;4.762;2023-08-20T11:47:18;6.05;;;2.03;;
19965;SDS011;10144;50.874;4.762;2023-08-20T11:49:44;4.70;;;1.70;;
19965;SDS011;10144;50.874;4.762;2023-08-20T11:52:10;6.93;;;1.92;;
19965;SDS011;10144;50.874;4.762;2023-08-20T11:54:42;6.38;;;1.80;;
19965;SDS011;10144;50.874;4.762;2023-08-20T11:57:13;3.67;;;1.73;;
19965;SDS011;10144;50.874;4.762;2023-08-20T11:59:39;8.57;;;1.70;;
19965;SDS011;10144;50.874;4.762;2023-08-20T12:02:07;2.58;;;1.70;;
19965;SDS011;10144;50.874;4.762;2023-08-20T12:04:33;4.78;;;1.75;;
19965;SDS011;10144;50.874;4.762;2023-08-20T12:07:14;4.70;;;1.60;;
19965;SDS011;10144;50.874;4.762;2023-08-20T12:09:46;4.55;;;1.80;;
19965;SDS011;10144;50.874;4.762;2023-08-20T12:12:16;4.50;;;1.60;;
19965;SDS011;10144;50.874;4.762;2023-08-20T12:14:48;5.82;;;1.80;;
19965;SDS011;10144;50.874;4.762;2023-08-20T12:17:20;5.13;;;1.60;;
19965;SDS011;10144;50.874;4.762;2023-08-20T12:19:48;10.48;;;1.70;;
19965;SDS011;10144;50.874;4.762;2023-08-20T12:22:19;5.68;;;1.70;;
19965;SDS011;10144;50.874;4.762;2023-08-20T12:24:48;3.33;;;1.63;;
19965;SDS011;10144;50.874;4.762;2023-08-20T12:27:17;6.30;;;1.70;;
19965;SDS011;10144;50.874;4.762;2023-08-20T12:29:44;4.45;;;1.40;;
19965;SDS011;10144;50.874;4.762;2023-08-20T12:32:16;4.57;;;1.60;;
19965;SDS011;10144;50.874;4.762;2023-08-20T12:34:48;4.82;;;1.75;;
19965;SDS011;10144;50.874;4.762;2023-08-20T12:37:15;4.15;;;1.80;;
19965;SDS011;10144;50.874;4.762;2023-08-20T12:39:46;4.32;;;1.70;;
19965;SDS011;10144;50.874;4.762;2023-08-20T12:42:15;4.50;;;1.70;;
19965;SDS011;10144;50.874;4.762;2023-08-20T12:44:47;6.30;;;1.73;;
19965;SDS011;10144;50.874;4.762;2023-08-20T12:49:44;4.93;;;1.63;;
19965;SDS011;10144;50.874;4.762;2023-08-20T12:52:11;4.50;;;1.77;;
19965;SDS011;10144;50.874;4.762;2023-08-20T12:54:40;4.38;;;1.58;;
19965;SDS011;10144;50.874;4.762;2023-08-20T12:57:09;8.20;;;1.70;;
19965;SDS011;10144;50.874;4.762;2023-08-20T13:02:31;8.85;;;1.88;;
19965;SDS011;10144;50.874;4.762;2023-08-20T13:05:03;6.10;;;1.70;;
19965;SDS011;10144;50.874;4.762;2023-08-20T13:07:31;7.97;;;1.75;;
19965;SDS011;10144;50.874;4.762;2023-08-20T13:10:03;8.43;;;1.90;;
19965;SDS011;10144;50.874;4.762;2023-08-20T13:12:29;4.15;;;1.55;;
19965;SDS011;10144;50.874;4.762;2023-08-20T13:14:57;6.60;;;1.70;;
19965;SDS011;10144;50.874;4.762;2023-08-20T13:17:23;6.03;;;1.75;;
19965;SDS011;10144;50.874;4.762;2023-08-20T13:19:49;4.65;;;1.60;;
19965;SDS011;10144;50.874;4.762;2023-08-20T13:22:15;4.80;;;1.63;;
19965;SDS011;10144;50.874;4.762;2023-08-20T13:24:43;5.20;;;1.80;;
19965;SDS011;10144;50.874;4.762;2023-08-20T13:27:18;5.95;;;1.70;;
19965;SDS011;10144;50.874;4.762;2023-08-20T13:29:43;4.07;;;1.60;;
19965;SDS011;10144;50.874;4.762;2023-08-20T13:32:09;5.22;;;1.60;;
19965;SDS011;10144;50.874;4.762;2023-08-20T13:34:34;4.45;;;1.50;;
19965;SDS011;10144;50.874;4.762;2023-08-20T13:37:00;3.83;;;1.67;;
19965;SDS011;10144;50.874;4.762;2023-08-20T13:39:26;6.32;;;1.73;;
19965;SDS011;10144;50.874;4.762;2023-08-20T13:41:51;4.95;;;2.05;;
19965;SDS011;10144;50.874;4.762;2023-08-20T13:44:17;5.47;;;1.70;;
19965;SDS011;10144;50.874;4.762;2023-08-20T13:46:44;5.38;;;1.75;;
19965;SDS011;10144;50.874;4.762;2023-08-20T13:49:10;5.15;;;1.58;;
19965;SDS011;10144;50.874;4.762;2023-08-20T13:51:35;7.07;;;1.60;;
19965;SDS011;10144;50.874;4.762;2023-08-20T13:54:01;5.75;;;1.60;;
19965;SDS011;10144;50.874;4.762;2023-08-20T13:56:27;5.57;;;1.65;;
19965;SDS011;10144;50.874;4.762;2023-08-20T13:58:53;5.65;;;1.73;;
19965;SDS011;10144;50.874;4.762;2023-08-20T14:01:19;7.38;;;1.67;;
19965;SDS011;10144;50.874;4.762;2023-08-20T14:03:44;5.03;;;1.58;;
19965;SDS011;10144;50.874;4.762;2023-08-20T14:06:10;5.97;;;1.77;;
19965;SDS011;10144;50.874;4.762;2023-08-20T14:08:35;7.18;;;1.67;;
19965;SDS011;10144;50.874;4.762;2023-08-20T14:11:01;4.95;;;1.73;;
19965;SDS011;10144;50.874;4.762;2023-08-20T14:13:27;3.67;;;1.50;;
19965;SDS011;10144;50.874;4.762;2023-08-20T14:15:53;7.22;;;1.75;;
19965;SDS011;10144;50.874;4.762;2023-08-20T14:18:18;4.47;;;1.60;;
19965;SDS011;10144;50.874;4.762;2023-08-20T14:20:44;5.10;;;1.80;;
19965;SDS011;10144;50.874;4.762;2023-08-20T14:23:09;4.65;;;1.80;;
19965;SDS011;10144;50.874;4.762;2023-08-20T14:25:35;4.28;;;1.60;;
19965;SDS011;10144;50.874;4.762;2023-08-20T14:28:01;5.15;;;1.60;;
19965;SDS011;10144;50.874;4.762;2023-08-20T14:30:27;5.10;;;1.58;;
19965;SDS011;10144;50.874;4.762;2023-08-20T14:32:52;4.47;;;1.52;;
19965;SDS011;10144;50.874;4.762;2023-08-20T14:35:19;5.82;;;1.70;;
19965;SDS011;10144;50.874;4.762;2023-08-20T14:37:45;5.43;;;1.65;;
19965;SDS011;10144;50.874;4.762;2023-08-20T14:40:11;5.97;;;1.83;;
19965;SDS011;10144;50.874;4.762;2023-08-20T14:42:36;5.40;;;1.52;;
19965;SDS011;10144;50.874;4.762;2023-08-20T14:45:02;3.97;;;1.55;;
19965;SDS011;10144;50.874;4.762;2023-08-20T14:47:29;4.82;;;1.60;;
19965;SDS011;10144;50.874;4.762;2023-08-20T14:49:56;3.05;;;1.50;;
19965;SDS011;10144;50.874;4.762;2023-08-20T14:52:22;3.25;;;1.52;;
19965;SDS011;10144;50.874;4.762;2023-08-20T14:54:47;5.68;;;1.70;;
19965;SDS011;10144;50.874;4.762;2023-08-20T14:57:13;6.82;;;1.88;;
19965;SDS011;10144;50.874;4.762;2023-08-20T14:59:42;6.72;;;1.60;;
19965;SDS011;10144;50.874;4.762;2023-08-20T15:02:08;6.32;;;1.80;;
19965;SDS011;10144;50.874;4.762;2023-08-20T15:04:33;6.45;;;1.90;;
19965;SDS011;10144;50.874;4.762;2023-08-20T15:06:59;4.05;;;1.52;;
19965;SDS011;10144;50.874;4.762;2023-08-20T15:09:25;4.82;;;1.70;;
19965;SDS011;10144;50.874;4.762;2023-08-20T15:11:50;4.38;;;1.70;;
19965;SDS011;10144;50.874;4.762;2023-08-20T15:14:16;6.63;;;1.90;;
19965;SDS011;10144;50.874;4.762;2023-08-20T15:16:42;4.90;;;1.55;;
19965;SDS011;10144;50.874;4.762;2023-08-20T15:19:08;5.60;;;1.60;;
19965;SDS011;10144;50.874;4.762;2023-08-20T15:21:34;6.93;;;1.65;;
19965;SDS011;10144;50.874;4.762;2023-08-20T15:23:59;4.25;;;1.83;;
19965;SDS011;10144;50.874;4.762;2023-08-20T15:26:25;5.40;;;1.77;;
19965;SDS011;10144;50.874;4.762;2023-08-20T15:28:51;4.55;;;1.60;;
19965;SDS011;10144;50.874;4.762;2023-08-20T15:31:16;4.80;;;1.77;;
19965;SDS011;10144;50.874;4.762;2023-08-20T15:33:42;7.45;;;2.30;;
19965;SDS011;10144;50.874;4.762;2023-08-20T15:36:11;7.57;;;2.17;;
19965;SDS011;10144;50.874;4.762;2023-08-20T15:38:36;4.35;;;2.10;;
19965;SDS011;10144;50.874;4.762;2023-08-20T15:41:02;5.00;;;1.92;;
19965;SDS011;10144;50.874;4.762;2023-08-20T15:43:28;6.80;;;1.90;;
19965;SDS011;10144;50.874;4.762;2023-08-20T15:45:53;5.70;;;1.75;;
19965;SDS011;10144;50.874;4.762;2023-08-20T15:48:19;6.40;;;2.40;;